createdAt,value
2023-01-30T00:00:29.888Z,101853.22
2023-01-30T00:05:26.412Z,101838.47
2023-01-30T00:10:22.824Z,101842.78
2023-01-30T00:15:18.856Z,101863.22
2023-01-30T00:20:09.433Z,101854.19
2023-01-30T00:25:04.914Z,101836.22
2023-01-30T00:30:02.694Z,101846.66
2023-01-30T00:35:03.140Z,101838.03
2023-01-30T00:39:54.857Z,101831.13
2023-01-30T00:45:01.159Z,101829.66
2023-01-30T00:49:55.357Z,101818.44
2023-01-30T00:54:51.731Z,101809.97
2023-01-30T00:59:43.394Z,101804.00
2023-01-30T01:04:52.646Z,101797.94
2023-01-30T01:09:43.797Z,101807.69
2023-01-30T01:14:35.508Z,101799.81
2023-01-30T01:19:26.264Z,101788.84
2023-01-30T01:24:22.707Z,101778.41
2023-01-30T01:29:17.143Z,101742.06
2023-01-30T01:34:12.750Z,101744.63
2023-01-30T01:39:10.948Z,101737.88
2023-01-30T01:44:10.062Z,101729.78
2023-01-30T01:49:05.601Z,101758.22
2023-01-30T01:54:01.336Z,101755.94
2023-01-30T01:58:58.163Z,101754.91
2023-01-30T02:04:02.164Z,101744.41
2023-01-30T02:08:56.526Z,101735.75
2023-01-30T02:13:49.374Z,101742.88
2023-01-30T02:18:43.783Z,101752.88
2023-01-30T02:23:57.403Z,101748.00
2023-01-30T02:29:15.898Z,101744.72
2023-01-30T02:34:15.930Z,101741.19
2023-01-30T02:39:11.247Z,101723.75
2023-01-30T02:44:10.675Z,101743.50
2023-01-30T02:49:04.318Z,101733.31
2023-01-30T02:54:02.767Z,101731.03
2023-01-30T02:59:02.052Z,101714.69
2023-01-30T03:04:09.995Z,101712.22
2023-01-30T03:09:09.784Z,101714.16
2023-01-30T03:14:06.447Z,101703.59
2023-01-30T03:19:01.719Z,101702.94
2023-01-30T03:23:52.554Z,101705.78
2023-01-30T03:28:53.106Z,101705.66
2023-01-30T03:33:47.053Z,101695.34
2023-01-30T03:38:39.257Z,101692.66
2023-01-30T03:43:31.167Z,101701.22
2023-01-30T03:48:37.465Z,101715.03
2023-01-30T03:53:33.992Z,101693.81
2023-01-30T03:58:27.757Z,101695.38
2023-01-30T04:03:21.787Z,101698.16
2023-01-30T04:08:17.872Z,101693.97
2023-01-30T04:13:15.865Z,101689.69
2023-01-30T04:18:16.267Z,101685.09
2023-01-30T04:23:31.954Z,101696.22
2023-01-30T04:28:29.509Z,101703.66
2023-01-30T04:33:23.946Z,101702.09
2023-01-30T04:38:16.792Z,101696.31
2023-01-30T04:43:18.124Z,101696.31
2023-01-30T04:48:19.781Z,101696.13
2023-01-30T04:53:18.358Z,101716.94
2023-01-30T04:58:10.179Z,101710.03
2023-01-30T05:03:02.985Z,101718.75
2023-01-30T05:08:03.290Z,101719.53
2023-01-30T05:12:59.260Z,101707.88
2023-01-30T05:17:55.781Z,101697.66
2023-01-30T05:22:49.511Z,101705.38
2023-01-30T05:27:48.467Z,101706.47
2023-01-30T05:32:44.669Z,101710.56
2023-01-30T05:37:43.621Z,101715.13
2023-01-30T05:42:47.538Z,101712.41
2023-01-30T05:47:47.966Z,101724.44
2023-01-30T05:52:40.652Z,101741.34
2023-01-30T05:57:35.433Z,101739.78
2023-01-30T06:02:29.548Z,101735.41
2023-01-30T06:07:33.043Z,101742.22
2023-01-30T06:12:24.006Z,101736.16
2023-01-30T06:17:19.912Z,101746.47
2023-01-30T06:22:15.058Z,101741.94
2023-01-30T06:27:07.890Z,101741.22
2023-01-30T06:31:59.977Z,101751.28
2023-01-30T06:36:57.465Z,101757.28
2023-01-30T06:41:51.776Z,101748.69
2023-01-30T06:46:57.894Z,101751.06
2023-01-30T06:52:11.817Z,101739.91
2023-01-30T06:57:02.206Z,101769.09
2023-01-30T07:02:02.669Z,101753.53
2023-01-30T07:07:30.655Z,101790.28
2023-01-30T07:12:25.975Z,101794.75
2023-01-30T07:17:16.631Z,101789.41
2023-01-30T07:22:19.261Z,101786.19
2023-01-30T07:27:14.409Z,101787.06
2023-01-30T07:32:12.211Z,101790.56
2023-01-30T07:37:02.988Z,101789.78
2023-01-30T07:42:06.118Z,101810.13
2023-01-30T07:47:01.419Z,101802.31
2023-01-30T07:56:59.870Z,101800.44
2023-01-30T08:01:51.220Z,101796.97
2023-01-30T08:06:47.094Z,101807.72
2023-01-30T08:11:41.326Z,101821.59
2023-01-30T08:16:39.715Z,101852.63
2023-01-30T08:21:36.343Z,101850.56
2023-01-30T08:26:42.933Z,101828.63
2023-01-30T08:31:36.618Z,101840.53
2023-01-30T08:36:27.523Z,101842.25
2023-01-30T08:41:19.713Z,101837.25
2023-01-30T08:46:17.662Z,101859.72
2023-01-30T08:51:12.804Z,101863.06
2023-01-30T08:56:04.951Z,101869.22
2023-01-30T09:01:01.500Z,101883.97
2023-01-30T09:05:57.172Z,101895.50
2023-01-30T09:10:52.285Z,101899.19
2023-01-30T09:15:46.756Z,101896.59
2023-01-30T09:20:39.548Z,101925.00
2023-01-30T09:25:34.878Z,101927.59
2023-01-30T09:30:33.196Z,101926.13
2023-01-30T09:35:26.150Z,101928.06
2023-01-30T09:40:22.023Z,101943.59
2023-01-30T09:45:21.818Z,101933.06
2023-01-30T09:50:38.253Z,101946.38
2023-01-30T09:55:44.291Z,101949.88
2023-01-30T10:00:42.974Z,101962.66
2023-01-30T10:05:42.553Z,101949.00
2023-01-30T10:10:42.974Z,101961.09
2023-01-30T10:15:42.146Z,102001.59
2023-01-30T10:20:45.552Z,101978.28
2023-01-30T10:25:41.030Z,101997.56
2023-01-30T10:30:35.516Z,102000.19
2023-01-30T10:35:48.333Z,102009.59
2023-01-30T10:40:47.472Z,102017.47
2023-01-30T10:45:49.481Z,102011.44
2023-01-30T10:50:54.433Z,102015.94
2023-01-30T10:55:56.285Z,102003.75
2023-01-30T11:00:49.341Z,102006.66
2023-01-30T11:05:44.537Z,102011.78
2023-01-30T11:10:46.702Z,102005.09
2023-01-30T11:15:49.253Z,102016.28
2023-01-30T11:20:50.634Z,102016.75
2023-01-30T11:26:02.193Z,102012.56
2023-01-30T11:31:06.541Z,102014.06
2023-01-30T11:36:04.439Z,102014.78
2023-01-30T11:41:11.828Z,102013.03
2023-01-30T11:46:11.326Z,102027.91
2023-01-30T11:51:04.499Z,102015.91
2023-01-30T11:56:03.311Z,102001.34
2023-01-30T12:01:00.803Z,102001.50
2023-01-30T12:05:55.874Z,101995.44
2023-01-30T12:10:52.076Z,102007.53
2023-01-30T12:15:46.204Z,102013.94
2023-01-30T12:20:42.467Z,102012.44
2023-01-30T12:25:40.313Z,102014.88
2023-01-30T12:35:35.625Z,102011.34
2023-01-30T12:40:47.068Z,102020.75
2023-01-30T12:45:46.887Z,102035.31
2023-01-30T12:50:46.354Z,102036.31
2023-01-30T12:55:40.944Z,102040.69
2023-01-30T13:00:43.367Z,102054.59
2023-01-30T13:05:45.345Z,102056.41
2023-01-30T13:10:44.478Z,102066.88
2023-01-30T13:15:39.891Z,102064.34
2023-01-30T13:20:41.696Z,102063.69
2023-01-30T13:25:49.637Z,102076.31
2023-01-30T13:30:43.760Z,102081.59
2023-01-30T13:35:36.733Z,102084.38
2023-01-30T13:40:44.932Z,102093.63
2023-01-30T13:45:57.517Z,102090.31
2023-01-30T13:51:08.945Z,102119.75
2023-01-30T13:56:01.658Z,102116.13
2023-01-30T14:00:58.839Z,102128.31
2023-01-30T14:06:05.007Z,102134.19
2023-01-30T14:10:57.464Z,102142.94
2023-01-30T14:16:01.566Z,102156.88
2023-01-30T14:21:11.639Z,102170.47
2023-01-30T14:26:21.557Z,102176.88
2023-01-30T14:31:39.452Z,102181.75
2023-01-30T14:36:49.028Z,102186.84
2023-01-30T14:41:41.997Z,102192.78
2023-01-30T14:46:54.248Z,102197.88
2023-01-30T14:51:48.123Z,102214.53
2023-01-30T14:56:44.515Z,102218.78
2023-01-30T15:01:52.490Z,102223.00
2023-01-30T15:06:47.517Z,102229.53
2023-01-30T15:11:40.327Z,102242.34
2023-01-30T15:16:47.930Z,102256.16
2023-01-30T15:21:45.679Z,102241.69
2023-01-30T15:26:53.398Z,102249.25
2023-01-30T15:31:56.407Z,102254.44
2023-01-30T15:36:56.164Z,102266.47
2023-01-30T15:41:52.587Z,102263.84
2023-01-30T15:46:51.857Z,102282.00
2023-01-30T15:51:50.610Z,102292.19
2023-01-30T15:56:46.730Z,102300.69
2023-01-30T16:01:46.301Z,102312.81
2023-01-30T16:06:37.923Z,102320.16
2023-01-30T16:11:40.483Z,102319.59
2023-01-30T16:16:31.058Z,102313.47
2023-01-30T16:21:30.712Z,102325.00
2023-01-30T16:26:22.190Z,102334.09
2023-01-30T16:31:17.581Z,102334.97
2023-01-30T16:36:31.695Z,102344.47
2023-01-30T16:41:40.260Z,102372.94
2023-01-30T16:46:48.449Z,102371.84
2023-01-30T16:51:50.260Z,102381.00
2023-01-30T16:56:49.774Z,102383.47
2023-01-30T17:01:42.292Z,102396.56
2023-01-30T17:06:39.747Z,102400.03
2023-01-30T17:11:39.816Z,102405.00
2023-01-30T17:16:38.244Z,102428.41
2023-01-30T17:21:33.280Z,102429.19
2023-01-30T17:26:29.831Z,102425.47
2023-01-30T17:31:33.547Z,102432.41
2023-01-30T17:36:30.881Z,102441.06
2023-01-30T17:41:25.714Z,102450.66
2023-01-30T17:46:20.554Z,102455.84
2023-01-30T17:51:20.563Z,102466.31
2023-01-30T17:56:21.990Z,102464.25
2023-01-30T18:01:15.683Z,102472.13
2023-01-30T18:06:14.472Z,102476.09
2023-01-30T18:11:05.371Z,102488.59
2023-01-30T18:16:00.645Z,102487.66
2023-01-30T18:21:01.896Z,102444.69
2023-01-30T18:25:58.474Z,102482.91
2023-01-30T18:30:49.429Z,102488.84
2023-01-30T18:35:46.024Z,102500.69
2023-01-30T18:40:39.904Z,102509.34
2023-01-30T18:45:38.687Z,102523.84
2023-01-30T18:50:32.270Z,102541.06
2023-01-30T18:55:32.658Z,102545.97
2023-01-30T19:00:26.342Z,102537.19
2023-01-30T19:05:28.084Z,102545.78
2023-01-30T19:10:25.133Z,102550.09
2023-01-30T19:15:25.799Z,102549.19
2023-01-30T19:20:23.789Z,102563.66
2023-01-30T19:25:13.684Z,102572.06
2023-01-30T19:30:03.705Z,102569.56
2023-01-30T19:34:55.806Z,102575.34
2023-01-30T19:39:45.937Z,102583.97
2023-01-30T19:44:45.019Z,102576.03
2023-01-30T19:49:40.438Z,102563.56
2023-01-30T19:54:43.367Z,102578.13
2023-01-30T19:59:47.559Z,102584.94
2023-01-30T20:04:39.075Z,102584.06
2023-01-30T20:09:35.813Z,102590.91
2023-01-30T20:14:28.207Z,102587.19
2023-01-30T20:19:27.314Z,102589.69
2023-01-30T20:24:19.699Z,102593.41
2023-01-30T20:34:25.723Z,102584.63
2023-01-30T20:39:23.638Z,102581.81
2023-01-30T20:44:21.223Z,102586.66
2023-01-30T20:49:17.333Z,102576.13
2023-01-30T20:54:17.918Z,102575.53
2023-01-30T20:59:18.248Z,102578.97
2023-01-30T21:04:17.245Z,102570.44
2023-01-30T21:09:11.730Z,102577.25
2023-01-30T21:14:06.191Z,102578.97
2023-01-30T21:19:04.161Z,102585.50
2023-01-30T21:24:02.716Z,102572.38
2023-01-30T21:29:14.380Z,102589.69
2023-01-30T21:34:06.314Z,102597.97
2023-01-30T21:39:12.052Z,102589.31
2023-01-30T21:44:23.263Z,102606.19
2023-01-30T21:54:36.547Z,102610.53
2023-01-30T21:59:28.112Z,102608.41
2023-01-30T22:04:22.823Z,102603.50
2023-01-30T22:09:18.823Z,102610.34
2023-01-30T22:14:21.162Z,102598.47
2023-01-30T22:19:18.368Z,102595.97
2023-01-30T22:24:28.599Z,102598.41
2023-01-30T22:29:22.933Z,102588.47
2023-01-30T22:34:16.922Z,102603.28
2023-01-30T22:39:16.081Z,102599.25
2023-01-30T22:44:15.181Z,102602.44
2023-01-30T22:49:07.380Z,102585.75
2023-01-30T22:53:59.917Z,102571.28
2023-01-30T22:58:53.597Z,102574.75
2023-01-30T23:04:03.619Z,102565.91
2023-01-30T23:09:01.111Z,102562.72
2023-01-30T23:13:56.307Z,102546.84
2023-01-30T23:19:10.702Z,102561.25
2023-01-30T23:24:07.655Z,102544.81
2023-01-30T23:29:04.829Z,102544.88
2023-01-30T23:33:56.355Z,102550.13
2023-01-30T23:38:51.119Z,102542.13
2023-01-30T23:43:48.159Z,102554.16
2023-01-30T23:48:37.948Z,102552.50
2023-01-30T23:53:35.169Z,102547.69
2023-01-30T23:58:25.498Z,102553.56
